FALE

King Shaka International Airport

Durban, South Africa
METAR FALE 241100Z 17008KT 9999 FEW012 SCT018 BKN045 22/17 Q1019 NOSIG
Observed Flight Rules
Sep-24 @ 11:00 UTC (32 minutes ago) Visual Flight Rules
Wind Visibility Clouds
170° at 8 knots 10,000+ meters
  • Few at 1,200' AGL
  • Scattered at 1,800' AGL
  • Broken at 4,500' AGL
Temperatures Readings
Current 22°C / 72°F
Dewpoint 17°C / 63°F
Humidity 73%
Altimeter 30.09" Hg
Pressure 1019 hPa
Elevation 109
METAR FALE 241100Z 17008KT 9999 FEW012 SCT018 BKN045 22/17 Q1019 NOSIG
Observed Flight Rules
Sep-24 @ 11:00 UTC
(32 minutes ago)
VFR
Wind Visibility
170° at 8 knots 10,000+ meters
Clouds
  • Few at 1,200' AGL
  • Scattered at 1,800' AGL
  • Broken at 4,500' AGL
Temperature Dewpoint
22°C / 72°F 17°C / 63°F
Humidity Altimeter Pressure
73% 30.09" Hg 1019 hPa